JRH weather

Jorhat Airport
Jorhat, Assam, India

Public forecast

Using degrees Celsius for public forecast. Weather courtesy of forecast.io.

METAR (pilot weather report)

Report is more than 6 hours old.

Closest report is Dibrugarh Airport, 63.7 nm (118.0 km) NE. Retrieved 2019/08/21 12:30 UTC (7 hours ago):

VEMN 211230Z 01003KT 5000 HZ FEW025 SCT100 32/25 Q1001 NOSIG

TAF (pilot weather forecast)

Forecast is more than 6 hours old.

Retrieved 2019/08/21 12:30 UTC (7 hours ago):

TAF VEJT 211930Z 2112/2124 01005KT 6000 SCT025 SCT090 TEMPO 2117/2121 20010KT 3000 TSRA SCT010 SCT020 FEW030CB BECMG 2121/2123 VRB02KT 5000 RABR SCT010 SCT015 BKN090